sensor_id;sensor_type;location;lat;lon;timestamp;pressure;altitude;pressure_sealevel;temperature
13304;BMP280;6720;51.958;4.540;2022-09-20T00:00:24;102105.25;;;12.40
13304;BMP280;6720;51.958;4.540;2022-09-20T00:02:50;102113.97;;;12.51
13304;BMP280;6720;51.958;4.540;2022-09-20T00:05:15;102128.81;;;12.61
13304;BMP280;6720;51.958;4.540;2022-09-20T00:07:43;102129.66;;;12.66
13304;BMP280;6720;51.958;4.540;2022-09-20T00:10:09;102120.03;;;12.64
13304;BMP280;6720;51.958;4.540;2022-09-20T00:12:34;102120.88;;;12.67
13304;BMP280;6720;51.958;4.540;2022-09-20T00:14:59;102116.53;;;12.63
13304;BMP280;6720;51.958;4.540;2022-09-20T00:17:25;102120.94;;;12.61
13304;BMP280;6720;51.958;4.540;2022-09-20T00:19:50;102110.50;;;12.46
13304;BMP280;6720;51.958;4.540;2022-09-20T00:22:15;102114.94;;;12.35
13304;BMP280;6720;51.958;4.540;2022-09-20T00:24:41;102134.16;;;12.40
13304;BMP280;6720;51.958;4.540;2022-09-20T00:27:07;102126.28;;;12.37
13304;BMP280;6720;51.958;4.540;2022-09-20T00:29:32;102134.16;;;12.46
13304;BMP280;6720;51.958;4.540;2022-09-20T00:31:57;102135.00;;;12.50
13304;BMP280;6720;51.958;4.540;2022-09-20T00:34:23;102128.00;;;12.50
13304;BMP280;6720;51.958;4.540;2022-09-20T00:37:06;102141.97;;;12.55
13304;BMP280;6720;51.958;4.540;2022-09-20T00:39:32;102142.84;;;12.56
13304;BMP280;6720;51.958;4.540;2022-09-20T00:41:57;102150.69;;;12.60
13304;BMP280;6720;51.958;4.540;2022-09-20T00:44:56;102164.66;;;12.71
13304;BMP280;6720;51.958;4.540;2022-09-20T00:47:38;102153.25;;;12.77
13304;BMP280;6720;51.958;4.540;2022-09-20T00:50:28;102147.16;;;12.73
13304;BMP280;6720;51.958;4.540;2022-09-20T00:53:19;102127.88;;;12.68
13304;BMP280;6720;51.958;4.540;2022-09-20T00:55:50;102138.38;;;12.77
13304;BMP280;6720;51.958;4.540;2022-09-20T00:58:18;102151.47;;;12.83
13304;BMP280;6720;51.958;4.540;2022-09-20T01:00:44;102150.63;;;12.81
13304;BMP280;6720;51.958;4.540;2022-09-20T01:03:12;102146.25;;;12.79
13304;BMP280;6720;51.958;4.540;2022-09-20T01:05:40;102142.75;;;12.77
13304;BMP280;6720;51.958;4.540;2022-09-20T01:08:07;102140.09;;;12.78
13304;BMP280;6720;51.958;4.540;2022-09-20T01:10:33;102112.22;;;12.50
13304;BMP280;6720;51.958;4.540;2022-09-20T01:12:58;102131.47;;;12.52
13304;BMP280;6720;51.958;4.540;2022-09-20T01:15:24;102114.88;;;12.41
13304;BMP280;6720;51.958;4.540;2022-09-20T01:17:53;102128.84;;;12.48
13304;BMP280;6720;51.958;4.540;2022-09-20T01:20:39;102140.25;;;12.51
13304;BMP280;6720;51.958;4.540;2022-09-20T01:23:36;102134.09;;;12.51
13304;BMP280;6720;51.958;4.540;2022-09-20T01:29:02;102121.84;;;12.51
13304;BMP280;6720;51.958;4.540;2022-09-20T01:31:34;102131.47;;;12.58
13304;BMP280;6720;51.958;4.540;2022-09-20T01:34:10;102127.94;;;12.58
13304;BMP280;6720;51.958;4.540;2022-09-20T01:37:18;102131.47;;;12.55
13304;BMP280;6720;51.958;4.540;2022-09-20T01:40:05;102137.59;;;12.54
13304;BMP280;6720;51.958;4.540;2022-09-20T01:42:43;102109.63;;;12.44
13304;BMP280;6720;51.958;4.540;2022-09-20T01:45:25;102141.09;;;12.56
13304;BMP280;6720;51.958;4.540;2022-09-20T01:48:24;102149.88;;;12.48
13304;BMP280;6720;51.958;4.540;2022-09-20T01:54:09;102150.75;;;12.54
13304;BMP280;6720;51.958;4.540;2022-09-20T02:00:34;102149.00;;;12.49
13304;BMP280;6720;51.958;4.540;2022-09-20T02:03:06;102147.25;;;12.49
13304;BMP280;6720;51.958;4.540;2022-09-20T02:11:12;102119.34;;;12.24
13304;BMP280;6720;51.958;4.540;2022-09-20T02:22:21;102105.41;;;11.98
13304;BMP280;6720;51.958;4.540;2022-09-20T02:30:33;102106.28;;;11.96
13304;BMP280;6720;51.958;4.540;2022-09-20T02:41:17;102120.31;;;11.90
13304;BMP280;6720;51.958;4.540;2022-09-20T02:43:53;102122.91;;;11.93
13304;BMP280;6720;51.958;4.540;2022-09-20T02:49:13;102124.63;;;12.00
13304;BMP280;6720;51.958;4.540;2022-09-20T02:51:50;102128.13;;;12.08
13304;BMP280;6720;51.958;4.540;2022-09-20T02:57:14;102126.38;;;12.07
13304;BMP280;6720;51.958;4.540;2022-09-20T03:03:05;102115.03;;;12.01
13304;BMP280;6720;51.958;4.540;2022-09-20T03:06:18;102124.63;;;12.06
13304;BMP280;6720;51.958;4.540;2022-09-20T03:08:59;102121.13;;;12.13
13304;BMP280;6720;51.958;4.540;2022-09-20T03:14:17;102115.03;;;12.05
13304;BMP280;6720;51.958;4.540;2022-09-20T03:22:20;102122.00;;;12.08
13304;BMP280;6720;51.958;4.540;2022-09-20T03:25:15;102122.88;;;12.10
13304;BMP280;6720;51.958;4.540;2022-09-20T03:31:10;102121.13;;;12.06
13304;BMP280;6720;51.958;4.540;2022-09-20T03:39:27;102101.00;;;12.05
13304;BMP280;6720;51.958;4.540;2022-09-20T03:42:17;102119.34;;;12.15
13304;BMP280;6720;51.958;4.540;2022-09-20T03:58:20;102117.59;;;12.20
13304;BMP280;6720;51.958;4.540;2022-09-20T04:03:37;102122.81;;;12.28
13304;BMP280;6720;51.958;4.540;2022-09-20T04:20:06;102146.41;;;12.40
13304;BMP280;6720;51.958;4.540;2022-09-20T04:22:39;102142.03;;;12.39
13304;BMP280;6720;51.958;4.540;2022-09-20T04:25:15;102137.63;;;12.45
13304;BMP280;6720;51.958;4.540;2022-09-20T04:27:46;102146.34;;;12.56
13304;BMP280;6720;51.958;4.540;2022-09-20T04:30:28;102143.75;;;12.47
13304;BMP280;6720;51.958;4.540;2022-09-20T04:33:02;102143.75;;;12.50
13304;BMP280;6720;51.958;4.540;2022-09-20T04:38:26;102144.59;;;12.52
13304;BMP280;6720;51.958;4.540;2022-09-20T04:58:06;102154.25;;;12.50
13304;BMP280;6720;51.958;4.540;2022-09-20T05:00:54;102140.25;;;12.50
13304;BMP280;6720;51.958;4.540;2022-09-20T05:14:15;102158.59;;;12.59
13304;BMP280;6720;51.958;4.540;2022-09-20T05:19:31;102135.84;;;12.55
13304;BMP280;6720;51.958;4.540;2022-09-20T05:30:03;102159.47;;;12.53
13304;BMP280;6720;51.958;4.540;2022-09-20T05:32:44;102148.13;;;12.56
13304;BMP280;6720;51.958;4.540;2022-09-20T05:40:44;102169.09;;;12.63
13304;BMP280;6720;51.958;4.540;2022-09-20T05:43:23;102148.97;;;12.62
13304;BMP280;6720;51.958;4.540;2022-09-20T05:46:09;102155.94;;;12.63
13304;BMP280;6720;51.958;4.540;2022-09-20T05:54:39;102150.63;;;12.81
13304;BMP280;6720;51.958;4.540;2022-09-20T05:57:26;102134.03;;;12.70
13304;BMP280;6720;51.958;4.540;2022-09-20T06:00:05;102161.13;;;12.81
13304;BMP280;6720;51.958;4.540;2022-09-20T06:05:15;102161.06;;;12.87
13304;BMP280;6720;51.958;4.540;2022-09-20T06:13:27;102140.16;;;12.69
13304;BMP280;6720;51.958;4.540;2022-09-20T06:16:08;102169.84;;;12.92
13304;BMP280;6720;51.958;4.540;2022-09-20T06:19:14;102170.69;;;12.94
13304;BMP280;6720;51.958;4.540;2022-09-20T06:21:51;102172.41;;;12.97
13304;BMP280;6720;51.958;4.540;2022-09-20T06:24:35;102128.72;;;12.78
13304;BMP280;6720;51.958;4.540;2022-09-20T06:27:05;102155.81;;;12.99
13304;BMP280;6720;51.958;4.540;2022-09-20T06:29:35;102172.31;;;13.19
13304;BMP280;6720;51.958;4.540;2022-09-20T06:32:01;102165.28;;;13.21
13304;BMP280;6720;51.958;4.540;2022-09-20T06:34:27;102166.16;;;13.23
13304;BMP280;6720;51.958;4.540;2022-09-20T06:39:53;102176.56;;;13.38
13304;BMP280;6720;51.958;4.540;2022-09-20T06:42:39;102179.19;;;13.46
13304;BMP280;6720;51.958;4.540;2022-09-20T06:45:05;102180.84;;;13.51
13304;BMP280;6720;51.958;4.540;2022-09-20T06:47:30;102173.81;;;13.58
13304;BMP280;6720;51.958;4.540;2022-09-20T06:49:56;102186.00;;;13.68
13304;BMP280;6720;51.958;4.540;2022-09-20T06:52:23;102165.00;;;13.63
13304;BMP280;6720;51.958;4.540;2022-09-20T06:54:50;102170.19;;;13.68
13304;BMP280;6720;51.958;4.540;2022-09-20T06:57:22;102186.78;;;13.77
13304;BMP280;6720;51.958;4.540;2022-09-20T06:59:49;102192.03;;;13.80
13304;BMP280;6720;51.958;4.540;2022-09-20T07:02:14;102192.91;;;13.82
13304;BMP280;6720;51.958;4.540;2022-09-20T07:04:39;102191.97;;;13.89
13304;BMP280;6720;51.958;4.540;2022-09-20T07:07:06;102184.94;;;13.88
13304;BMP280;6720;51.958;4.540;2022-09-20T07:09:33;102170.94;;;13.86
13304;BMP280;6720;51.958;4.540;2022-09-20T07:11:58;102190.13;;;13.99
13304;BMP280;6720;51.958;4.540;2022-09-20T07:14:25;102186.59;;;14.01
13304;BMP280;6720;51.958;4.540;2022-09-20T07:16:51;102183.03;;;14.05
13304;BMP280;6720;51.958;4.540;2022-09-20T07:19:17;102180.41;;;14.05
13304;BMP280;6720;51.958;4.540;2022-09-20T07:21:42;102187.41;;;14.06
13304;BMP280;6720;51.958;4.540;2022-09-20T07:24:08;102177.75;;;14.07
13304;BMP280;6720;51.958;4.540;2022-09-20T07:26:34;102180.31;;;14.11
13304;BMP280;6720;51.958;4.540;2022-09-20T07:29:00;102185.53;;;14.16
13304;BMP280;6720;51.958;4.540;2022-09-20T07:31:27;102146.22;;;13.99
13304;BMP280;6720;51.958;4.540;2022-09-20T07:33:53;102194.22;;;14.30
13304;BMP280;6720;51.958;4.540;2022-09-20T07:36:19;102198.56;;;14.35
13304;BMP280;6720;51.958;4.540;2022-09-20T07:38:49;102188.81;;;14.42
13304;BMP280;6720;51.958;4.540;2022-09-20T07:41:15;102201.03;;;14.49
13304;BMP280;6720;51.958;4.540;2022-09-20T07:43:43;102208.84;;;14.55
13304;BMP280;6720;51.958;4.540;2022-09-20T07:46:09;102208.78;;;14.62
13304;BMP280;6720;51.958;4.540;2022-09-20T07:48:38;102199.06;;;14.66
13304;BMP280;6720;51.958;4.540;2022-09-20T07:51:06;102197.31;;;14.65
13304;BMP280;6720;51.958;4.540;2022-09-20T07:53:31;102197.25;;;14.71
13304;BMP280;6720;51.958;4.540;2022-09-20T07:55:57;102222.56;;;14.86
13304;BMP280;6720;51.958;4.540;2022-09-20T07:58:23;102220.78;;;14.88
13304;BMP280;6720;51.958;4.540;2022-09-20T08:00:59;102181.56;;;14.60
13304;BMP280;6720;51.958;4.540;2022-09-20T08:03:25;102228.69;;;14.88
13304;BMP280;6720;51.958;4.540;2022-09-20T08:05:57;102227.81;;;14.89
13304;BMP280;6720;51.958;4.540;2022-09-20T08:08:23;102229.56;;;14.88
13304;BMP280;6720;51.958;4.540;2022-09-20T08:10:48;102229.53;;;14.91
13304;BMP280;6720;51.958;4.540;2022-09-20T08:13:15;102219.03;;;14.87
13304;BMP280;6720;51.958;4.540;2022-09-20T08:15:41;102228.66;;;14.89
13304;BMP280;6720;51.958;4.540;2022-09-20T08:18:08;102233.06;;;14.89
13304;BMP280;6720;51.958;4.540;2022-09-20T08:20:37;102220.06;;;14.73
13304;BMP280;6720;51.958;4.540;2022-09-20T08:23:04;102238.41;;;14.82
13304;BMP280;6720;51.958;4.540;2022-09-20T08:25:29;102231.47;;;14.75
13304;BMP280;6720;51.958;4.540;2022-09-20T08:27:55;102241.94;;;14.82
13304;BMP280;6720;51.958;4.540;2022-09-20T08:30:20;102243.72;;;14.79
13304;BMP280;6720;51.958;4.540;2022-09-20T08:32:47;102249.84;;;14.85
13304;BMP280;6720;51.958;4.540;2022-09-20T08:35:13;102234.06;;;14.78
13304;BMP280;6720;51.958;4.540;2022-09-20T08:37:40;102245.31;;;14.94
13304;BMP280;6720;51.958;4.540;2022-09-20T08:40:06;102232.22;;;14.85
13304;BMP280;6720;51.958;4.540;2022-09-20T08:42:35;102247.97;;;14.94
13304;BMP280;6720;51.958;4.540;2022-09-20T08:45:09;102252.28;;;15.00
13304;BMP280;6720;51.958;4.540;2022-09-20T08:47:42;102219.91;;;14.87
13304;BMP280;6720;51.958;4.540;2022-09-20T08:50:11;102222.41;;;14.98
13304;BMP280;6720;51.958;4.540;2022-09-20T08:52:43;102246.88;;;15.09
13304;BMP280;6720;51.958;4.540;2022-09-20T08:57:55;102199.63;;;14.91
13304;BMP280;6720;51.958;4.540;2022-09-20T09:00:24;102255.47;;;15.26
13304;BMP280;6720;51.958;4.540;2022-09-20T09:02:54;102235.22;;;15.25
13304;BMP280;6720;51.958;4.540;2022-09-20T09:05:35;102266.66;;;15.43
13304;BMP280;6720;51.958;4.540;2022-09-20T09:08:12;102234.25;;;15.32
13304;BMP280;6720;51.958;4.540;2022-09-20T09:10:42;102244.53;;;15.53
13304;BMP280;6720;51.958;4.540;2022-09-20T09:13:20;102249.59;;;15.68
13304;BMP280;6720;51.958;4.540;2022-09-20T09:15:52;102264.41;;;15.76
13304;BMP280;6720;51.958;4.540;2022-09-20T09:18:18;102251.84;;;15.90
13304;BMP280;6720;51.958;4.540;2022-09-20T09:20:44;102231.59;;;15.91
13304;BMP280;6720;51.958;4.540;2022-09-20T09:23:26;102236.63;;;16.06
13304;BMP280;6720;51.958;4.540;2022-09-20T09:25:52;102267.59;;;16.48
13304;BMP280;6720;51.958;4.540;2022-09-20T09:28:23;102270.06;;;16.57
13304;BMP280;6720;51.958;4.540;2022-09-20T09:30:49;102249.88;;;16.53
13304;BMP280;6720;51.958;4.540;2022-09-20T09:33:27;102275.63;;;16.89
13304;BMP280;6720;51.958;4.540;2022-09-20T09:35:54;102253.75;;;17.22
13304;BMP280;6720;51.958;4.540;2022-09-20T09:38:23;102262.25;;;17.36
13304;BMP280;6720;51.958;4.540;2022-09-20T09:40:56;102249.91;;;17.35
13304;BMP280;6720;51.958;4.540;2022-09-20T09:43:28;102244.59;;;17.74
13304;BMP280;6720;51.958;4.540;2022-09-20T09:45:57;102251.06;;;17.99
13304;BMP280;6720;51.958;4.540;2022-09-20T09:48:41;102265.59;;;18.84
13304;BMP280;6720;51.958;4.540;2022-09-20T09:51:14;102266.09;;;18.66
13304;BMP280;6720;51.958;4.540;2022-09-20T09:53:41;102247.00;;;18.20
13304;BMP280;6720;51.958;4.540;2022-09-20T10:06:46;102277.69;;;20.59
13304;BMP280;6720;51.958;4.540;2022-09-20T10:15:01;102269.75;;;20.82
13304;BMP280;6720;51.958;4.540;2022-09-20T10:29:22;102256.44;;;19.25
13304;BMP280;6720;51.958;4.540;2022-09-20T10:32:14;102267.66;;;19.04
13304;BMP280;6720;51.958;4.540;2022-09-20T10:40:19;102284.72;;;18.31
13304;BMP280;6720;51.958;4.540;2022-09-20T10:42:49;102258.53;;;18.19
13304;BMP280;6720;51.958;4.540;2022-09-20T10:48:05;102228.00;;;17.68
13304;BMP280;6720;51.958;4.540;2022-09-20T10:53:51;102278.78;;;17.85
13304;BMP280;6720;51.958;4.540;2022-09-20T10:56:26;102280.69;;;17.80
13304;BMP280;6720;51.958;4.540;2022-09-20T11:01:28;102280.44;;;19.20
13304;BMP280;6720;51.958;4.540;2022-09-20T11:09:12;102287.94;;;21.19
13304;BMP280;6720;51.958;4.540;2022-09-20T11:11:46;102293.16;;;21.67
13304;BMP280;6720;51.958;4.540;2022-09-20T11:14:20;102259.13;;;21.52
13304;BMP280;6720;51.958;4.540;2022-09-20T11:16:54;102273.00;;;21.60
13304;BMP280;6720;51.958;4.540;2022-09-20T11:19:27;102301.31;;;22.07
13304;BMP280;6720;51.958;4.540;2022-09-20T11:22:08;102281.56;;;22.32
13304;BMP280;6720;51.958;4.540;2022-09-20T11:24:37;102301.53;;;22.64
13304;BMP280;6720;51.958;4.540;2022-09-20T11:27:17;102279.72;;;22.74
13304;BMP280;6720;51.958;4.540;2022-09-20T11:29:49;102295.88;;;22.30
13304;BMP280;6720;51.958;4.540;2022-09-20T11:32:26;102283.25;;;22.55
13304;BMP280;6720;51.958;4.540;2022-09-20T11:37:42;102303.38;;;23.22
13304;BMP280;6720;51.958;4.540;2022-09-20T11:40:14;102303.03;;;23.66
13304;BMP280;6720;51.958;4.540;2022-09-20T11:42:43;102287.19;;;22.86
13304;BMP280;6720;51.958;4.540;2022-09-20T11:45:10;102300.84;;;22.39
13304;BMP280;6720;51.958;4.540;2022-09-20T11:47:50;102302.50;;;21.78
13304;BMP280;6720;51.958;4.540;2022-09-20T11:56:19;102283.81;;;20.37
13304;BMP280;6720;51.958;4.540;2022-09-20T11:58:48;102306.97;;;20.33
13304;BMP280;6720;51.958;4.540;2022-09-20T12:01:21;102291.06;;;20.06
13304;BMP280;6720;51.958;4.540;2022-09-20T12:03:52;102281.94;;;19.87
13304;BMP280;6720;51.958;4.540;2022-09-20T12:06:32;102186.53;;;19.24
13304;BMP280;6720;51.958;4.540;2022-09-20T12:09:02;102281.53;;;19.99
13304;BMP280;6720;51.958;4.540;2022-09-20T12:11:33;102312.28;;;21.08
13304;BMP280;6720;51.958;4.540;2022-09-20T12:14:01;102303.03;;;20.95
13304;BMP280;6720;51.958;4.540;2022-09-20T12:16:43;102301.75;;;20.56
13304;BMP280;6720;51.958;4.540;2022-09-20T12:19:14;102279.53;;;20.33
13304;BMP280;6720;51.958;4.540;2022-09-20T12:24:29;102294.16;;;19.92
13304;BMP280;6720;51.958;4.540;2022-09-20T12:26:59;102208.94;;;19.43
13304;BMP280;6720;51.958;4.540;2022-09-20T12:32:00;102310.88;;;19.68
13304;BMP280;6720;51.958;4.540;2022-09-20T12:49:38;102295.97;;;19.35
13304;BMP280;6720;51.958;4.540;2022-09-20T13:03:39;102252.25;;;19.16
13304;BMP280;6720;51.958;4.540;2022-09-20T13:11:42;102244.88;;;19.55
13304;BMP280;6720;51.958;4.540;2022-09-20T13:14:17;102310.50;;;20.84
13304;BMP280;6720;51.958;4.540;2022-09-20T13:17:03;102322.63;;;21.40
13304;BMP280;6720;51.958;4.540;2022-09-20T13:19:33;102309.72;;;21.76
13304;BMP280;6720;51.958;4.540;2022-09-20T13:24:49;102320.38;;;22.81
13304;BMP280;6720;51.958;4.540;2022-09-20T13:27:34;102263.84;;;22.71
13304;BMP280;6720;51.958;4.540;2022-09-20T13:32:41;102330.06;;;23.42
13304;BMP280;6720;51.958;4.540;2022-09-20T13:35:14;102321.63;;;23.51
13304;BMP280;6720;51.958;4.540;2022-09-20T13:37:51;102317.56;;;23.61
13304;BMP280;6720;51.958;4.540;2022-09-20T13:41:08;102322.53;;;23.50
13304;BMP280;6720;51.958;4.540;2022-09-20T13:43:41;102322.31;;;23.73
13304;BMP280;6720;51.958;4.540;2022-09-20T13:46:08;102314.88;;;23.98
13304;BMP280;6720;51.958;4.540;2022-09-20T13:48:34;102316.66;;;24.33
13304;BMP280;6720;51.958;4.540;2022-09-20T13:51:00;102318.09;;;24.40
13304;BMP280;6720;51.958;4.540;2022-09-20T13:53:27;102279.09;;;23.82
13304;BMP280;6720;51.958;4.540;2022-09-20T13:55:53;102315.03;;;23.95
13304;BMP280;6720;51.958;4.540;2022-09-20T14:00:49;102301.53;;;24.32
13304;BMP280;6720;51.958;4.540;2022-09-20T14:03:16;102305.16;;;24.14
13304;BMP280;6720;51.958;4.540;2022-09-20T14:05:48;102298.16;;;23.74
13304;BMP280;6720;51.958;4.540;2022-09-20T14:08:21;102316.19;;;24.25
13304;BMP280;6720;51.958;4.540;2022-09-20T14:10:46;102299.50;;;24.20
13304;BMP280;6720;51.958;4.540;2022-09-20T14:13:14;102278.84;;;24.05
13304;BMP280;6720;51.958;4.540;2022-09-20T14:15:43;102269.72;;;24.26
13304;BMP280;6720;51.958;4.540;2022-09-20T14:18:16;102299.41;;;24.38
13304;BMP280;6720;51.958;4.540;2022-09-20T14:20:44;102278.06;;;24.37
13304;BMP280;6720;51.958;4.540;2022-09-20T14:23:20;102267.28;;;24.38
13304;BMP280;6720;51.958;4.540;2022-09-20T14:26:07;102289.56;;;24.22
13304;BMP280;6720;51.958;4.540;2022-09-20T14:28:32;102309.44;;;24.35
13304;BMP280;6720;51.958;4.540;2022-09-20T14:31:16;102310.41;;;24.68
13304;BMP280;6720;51.958;4.540;2022-09-20T14:33:46;102288.38;;;24.10
13304;BMP280;6720;51.958;4.540;2022-09-20T14:36:19;102297.75;;;24.36
13304;BMP280;6720;51.958;4.540;2022-09-20T14:38:47;102306.59;;;24.55
13304;BMP280;6720;51.958;4.540;2022-09-20T14:41:23;102304.06;;;24.35
13304;BMP280;6720;51.958;4.540;2022-09-20T14:43:54;102282.47;;;24.04
13304;BMP280;6720;51.958;4.540;2022-09-20T14:46:33;102286.56;;;23.75
13304;BMP280;6720;51.958;4.540;2022-09-20T14:52:20;102296.38;;;23.75
13304;BMP280;6720;51.958;4.540;2022-09-20T14:54:39;102286.13;;;23.66
13304;BMP280;6720;51.958;4.540;2022-09-20T14:57:05;102282.72;;;23.62
13304;BMP280;6720;51.958;4.540;2022-09-20T14:59:37;102291.31;;;23.69
13304;BMP280;6720;51.958;4.540;2022-09-20T15:04:32;102300.25;;;23.86
13304;BMP280;6720;51.958;4.540;2022-09-20T15:07:05;102293.31;;;24.01
13304;BMP280;6720;51.958;4.540;2022-09-20T15:09:32;102257.88;;;23.03
13304;BMP280;6720;51.958;4.540;2022-09-20T15:12:15;102287.72;;;23.33
13304;BMP280;6720;51.958;4.540;2022-09-20T15:14:41;102302.03;;;23.50
13304;BMP280;6720;51.958;4.540;2022-09-20T15:17:10;102293.81;;;23.55
13304;BMP280;6720;51.958;4.540;2022-09-20T15:19:37;102296.41;;;23.56
13304;BMP280;6720;51.958;4.540;2022-09-20T15:22:03;102279.53;;;23.54
13304;BMP280;6720;51.958;4.540;2022-09-20T15:24:28;102295.16;;;23.26
13304;BMP280;6720;51.958;4.540;2022-09-20T15:26:54;102295.09;;;23.08
13304;BMP280;6720;51.958;4.540;2022-09-20T15:29:19;102268.22;;;22.72
13304;BMP280;6720;51.958;4.540;2022-09-20T15:31:46;102265.50;;;22.74
13304;BMP280;6720;51.958;4.540;2022-09-20T15:34:12;102278.66;;;22.78
13304;BMP280;6720;51.958;4.540;2022-09-20T15:36:40;102250.09;;;22.60
13304;BMP280;6720;51.958;4.540;2022-09-20T15:39:06;102294.16;;;23.09
13304;BMP280;6720;51.958;4.540;2022-09-20T15:41:32;102194.22;;;22.36
13304;BMP280;6720;51.958;4.540;2022-09-20T15:43:58;102263.75;;;22.73
13304;BMP280;6720;51.958;4.540;2022-09-20T15:46:24;102290.97;;;23.01
13304;BMP280;6720;51.958;4.540;2022-09-20T15:48:53;102267.88;;;22.40
13304;BMP280;6720;51.958;4.540;2022-09-20T15:51:19;102264.13;;;22.24
13304;BMP280;6720;51.958;4.540;2022-09-20T15:53:56;102288.09;;;22.25
13304;BMP280;6720;51.958;4.540;2022-09-20T15:56:29;102269.13;;;22.31
13304;BMP280;6720;51.958;4.540;2022-09-20T15:58:59;102272.94;;;22.26
13304;BMP280;6720;51.958;4.540;2022-09-20T16:01:30;102267.22;;;22.35
13304;BMP280;6720;51.958;4.540;2022-09-20T16:03:59;102278.31;;;22.66
13304;BMP280;6720;51.958;4.540;2022-09-20T16:06:24;102270.28;;;22.86
13304;BMP280;6720;51.958;4.540;2022-09-20T16:08:50;102272.69;;;23.49
13304;BMP280;6720;51.958;4.540;2022-09-20T16:11:19;102277.09;;;23.68
13304;BMP280;6720;51.958;4.540;2022-09-20T16:13:51;102290.00;;;23.77
13304;BMP280;6720;51.958;4.540;2022-09-20T16:16:18;102275.25;;;23.69
13304;BMP280;6720;51.958;4.540;2022-09-20T16:18:46;102295.19;;;23.99
13304;BMP280;6720;51.958;4.540;2022-09-20T16:21:30;102295.78;;;23.87
13304;BMP280;6720;51.958;4.540;2022-09-20T16:23:57;102300.34;;;22.91
13304;BMP280;6720;51.958;4.540;2022-09-20T16:26:24;102288.91;;;22.06
13304;BMP280;6720;51.958;4.540;2022-09-20T16:28:51;102287.16;;;21.38
13304;BMP280;6720;51.958;4.540;2022-09-20T16:33:57;102282.25;;;20.56
13304;BMP280;6720;51.958;4.540;2022-09-20T16:36:23;102268.53;;;20.17
13304;BMP280;6720;51.958;4.540;2022-09-20T16:38:52;102269.88;;;20.03
13304;BMP280;6720;51.958;4.540;2022-09-20T16:41:22;102315.03;;;20.04
13304;BMP280;6720;51.958;4.540;2022-09-20T16:43:48;102311.81;;;19.95
13304;BMP280;6720;51.958;4.540;2022-09-20T16:46:24;102293.84;;;19.46
13304;BMP280;6720;51.958;4.540;2022-09-20T16:48:52;102289.34;;;19.19
13304;BMP280;6720;51.958;4.540;2022-09-20T16:51:20;102317.44;;;19.28
13304;BMP280;6720;51.958;4.540;2022-09-20T16:53:46;102262.41;;;18.72
13304;BMP280;6720;51.958;4.540;2022-09-20T16:56:25;102299.72;;;18.66
13304;BMP280;6720;51.958;4.540;2022-09-20T16:58:51;102328.75;;;18.72
13304;BMP280;6720;51.958;4.540;2022-09-20T17:01:17;102250.44;;;18.23
13304;BMP280;6720;51.958;4.540;2022-09-20T17:04:04;102325.78;;;18.50
13304;BMP280;6720;51.958;4.540;2022-09-20T17:06:34;102328.78;;;18.38
13304;BMP280;6720;51.958;4.540;2022-09-20T17:09:04;102276.75;;;17.96
13304;BMP280;6720;51.958;4.540;2022-09-20T17:11:35;102307.72;;;17.95
13304;BMP280;6720;51.958;4.540;2022-09-20T17:14:01;102321.19;;;17.85
13304;BMP280;6720;51.958;4.540;2022-09-20T17:16:32;102336.34;;;17.78
13304;BMP280;6720;51.958;4.540;2022-09-20T17:19:00;102341.97;;;17.65
13304;BMP280;6720;51.958;4.540;2022-09-20T17:21:28;102245.44;;;16.99
13304;BMP280;6720;51.958;4.540;2022-09-20T17:23:56;102269.25;;;16.99
13304;BMP280;6720;51.958;4.540;2022-09-20T17:26:28;102335.69;;;17.28
13304;BMP280;6720;51.958;4.540;2022-09-20T17:28:59;102343.06;;;17.12
13304;BMP280;6720;51.958;4.540;2022-09-20T17:31:28;102338.94;;;16.98
13304;BMP280;6720;51.958;4.540;2022-09-20T17:33:56;102340.03;;;16.88
13304;BMP280;6720;51.958;4.540;2022-09-20T17:36:29;102346.38;;;16.78
13304;BMP280;6720;51.958;4.540;2022-09-20T17:38:56;102275.94;;;16.25
13304;BMP280;6720;51.958;4.540;2022-09-20T17:41:23;102327.63;;;16.44
13304;BMP280;6720;51.958;4.540;2022-09-20T17:43:55;102288.53;;;16.08
13304;BMP280;6720;51.958;4.540;2022-09-20T17:46:28;102344.50;;;16.33
13304;BMP280;6720;51.958;4.540;2022-09-20T17:49:04;102312.47;;;16.01
13304;BMP280;6720;51.958;4.540;2022-09-20T17:51:35;102307.31;;;15.90
13304;BMP280;6720;51.958;4.540;2022-09-20T17:54:01;102352.88;;;16.06
13304;BMP280;6720;51.958;4.540;2022-09-20T17:56:27;102348.59;;;15.99
13304;BMP280;6720;51.958;4.540;2022-09-20T17:58:56;102320.00;;;15.66
13304;BMP280;6720;51.958;4.540;2022-09-20T18:01:22;102360.31;;;15.80
13304;BMP280;6720;51.958;4.540;2022-09-20T18:03:48;102360.47;;;15.71
13304;BMP280;6720;51.958;4.540;2022-09-20T18:06:19;102353.56;;;15.58
13304;BMP280;6720;51.958;4.540;2022-09-20T18:08:47;102365.97;;;15.53
13304;BMP280;6720;51.958;4.540;2022-09-20T18:11:14;102365.22;;;15.42
13304;BMP280;6720;51.958;4.540;2022-09-20T18:13:40;102318.13;;;15.07
13304;BMP280;6720;51.958;4.540;2022-09-20T18:16:09;102366.34;;;15.20
13304;BMP280;6720;51.958;4.540;2022-09-20T18:18:36;102369.09;;;15.11
13304;BMP280;6720;51.958;4.540;2022-09-20T18:23:34;102354.38;;;14.89
13304;BMP280;6720;51.958;4.540;2022-09-20T18:26:11;102340.56;;;14.65
13304;BMP280;6720;51.958;4.540;2022-09-20T18:29:16;102362.47;;;14.70
13304;BMP280;6720;51.958;4.540;2022-09-20T18:31:46;102380.03;;;14.70
13304;BMP280;6720;51.958;4.540;2022-09-20T18:34:14;102375.69;;;14.64
13304;BMP280;6720;51.958;4.540;2022-09-20T18:36:43;102320.72;;;14.25
13304;BMP280;6720;51.958;4.540;2022-09-20T18:39:11;102340.94;;;14.20
13304;BMP280;6720;51.958;4.540;2022-09-20T18:41:37;102384.72;;;14.42
13304;BMP280;6720;51.958;4.540;2022-09-20T18:44:04;102384.75;;;14.36
13304;BMP280;6720;51.958;4.540;2022-09-20T18:46:37;102355.94;;;14.09
13304;BMP280;6720;51.958;4.540;2022-09-20T18:49:08;102391.00;;;14.22
13304;BMP280;6720;51.958;4.540;2022-09-20T18:51:38;102393.63;;;14.17
13304;BMP280;6720;51.958;4.540;2022-09-20T18:54:04;102300.97;;;13.61
13304;BMP280;6720;51.958;4.540;2022-09-20T18:56:31;102386.66;;;14.10
13304;BMP280;6720;51.958;4.540;2022-09-20T18:59:02;102350.81;;;13.88
13304;BMP280;6720;51.958;4.540;2022-09-20T19:28:30;102404.56;;;13.44
13304;BMP280;6720;51.958;4.540;2022-09-20T19:30:56;102411.56;;;13.43
13304;BMP280;6720;51.958;4.540;2022-09-20T19:33:22;102416.00;;;13.37